createdAt,value
2023-03-27T00:01:27.944Z,94984.50
2023-03-27T00:03:55.810Z,94988.94
2023-03-27T00:06:25.380Z,94985.56
2023-03-27T00:08:52.247Z,94987.97
2023-03-27T00:11:21.443Z,94993.94
2023-03-27T00:13:51.316Z,94992.31
2023-03-27T00:16:22.530Z,94989.50
2023-03-27T00:18:49.556Z,94991.38
2023-03-27T00:21:16.488Z,95003.63
2023-03-27T00:23:43.397Z,94999.56
2023-03-27T00:26:12.350Z,94989.84
2023-03-27T00:28:39.312Z,95003.28
2023-03-27T00:31:12.914Z,95001.75
2023-03-27T00:33:40.293Z,95007.84
2023-03-27T00:36:07.781Z,95012.38
2023-03-27T00:38:34.783Z,95017.72
2023-03-27T00:41:01.806Z,95025.28
2023-03-27T00:43:29.709Z,95029.81
2023-03-27T00:46:17.858Z,95017.06
2023-03-27T00:48:48.316Z,95013.09
2023-03-27T00:51:15.992Z,95024.66
2023-03-27T00:53:42.802Z,95028.38
2023-03-27T00:56:10.829Z,95032.13
2023-03-27T00:59:02.887Z,95028.97
2023-03-27T01:01:30.072Z,95039.13
2023-03-27T01:04:03.110Z,95039.13
2023-03-27T01:06:30.907Z,95042.19
2023-03-27T01:08:57.993Z,95036.09
2023-03-27T01:11:47.006Z,95028.75
2023-03-27T01:14:42.266Z,95036.00
2023-03-27T01:17:18.582Z,95034.22
2023-03-27T01:20:23.286Z,95027.88
2023-03-27T01:23:12.898Z,95028.34
2023-03-27T01:25:57.392Z,95027.72
2023-03-27T01:28:30.347Z,95036.13
2023-03-27T01:31:17.504Z,95036.25
2023-03-27T01:34:24.927Z,95032.16
2023-03-27T01:37:25.235Z,95046.53
2023-03-27T01:40:00.934Z,95045.94
2023-03-27T01:42:31.158Z,95034.81
2023-03-27T01:45:19.353Z,95042.16
2023-03-27T01:48:12.560Z,95037.00
2023-03-27T01:50:51.094Z,95039.38
2023-03-27T01:53:17.911Z,95037.13
2023-03-27T01:55:47.920Z,95051.03
2023-03-27T01:58:49.460Z,95039.97
2023-03-27T02:01:19.459Z,95051.84
2023-03-27T02:03:49.411Z,95048.47
2023-03-27T02:06:25.114Z,95051.03
2023-03-27T02:09:22.369Z,95056.56
2023-03-27T02:12:02.859Z,95059.03
2023-03-27T02:14:33.043Z,95066.03
2023-03-27T02:17:02.549Z,95063.13
2023-03-27T02:19:34.269Z,95074.34
2023-03-27T02:22:01.437Z,95077.59
2023-03-27T02:24:29.263Z,95073.50
2023-03-27T02:27:17.404Z,95078.88
2023-03-27T02:29:55.051Z,95075.63
2023-03-27T02:32:28.346Z,95088.00
2023-03-27T02:35:47.139Z,95094.00
2023-03-27T02:38:25.439Z,95085.00
2023-03-27T02:41:00.468Z,95093.91
2023-03-27T02:43:41.586Z,95095.66
2023-03-27T02:46:14.165Z,95096.72
2023-03-27T02:48:44.367Z,95104.78
2023-03-27T02:51:25.278Z,95108.78
2023-03-27T02:54:29.091Z,95114.22
2023-03-27T02:56:57.876Z,95119.50
2023-03-27T02:59:31.023Z,95121.47
2023-03-27T03:01:57.913Z,95112.84
2023-03-27T03:04:30.079Z,95120.66
2023-03-27T03:06:56.946Z,95125.09
2023-03-27T03:09:25.072Z,95132.09
2023-03-27T03:11:54.006Z,95131.88
2023-03-27T03:14:26.937Z,95136.66
2023-03-27T03:16:53.923Z,95145.06
2023-03-27T03:19:21.942Z,95140.41
2023-03-27T03:21:50.062Z,95149.03
2023-03-27T03:24:17.815Z,95143.09
2023-03-27T03:26:45.356Z,95157.13
2023-03-27T03:29:13.031Z,95159.09
2023-03-27T03:31:45.848Z,95161.53
2023-03-27T03:34:16.751Z,95169.41
2023-03-27T03:36:45.096Z,95170.53
2023-03-27T03:39:12.994Z,95163.41
2023-03-27T03:41:39.943Z,95177.47
2023-03-27T03:44:07.103Z,95174.63
2023-03-27T03:46:34.205Z,95174.06
2023-03-27T03:49:01.296Z,95187.63
2023-03-27T03:51:28.770Z,95194.28
2023-03-27T03:53:55.736Z,95183.31
2023-03-27T03:56:22.669Z,95188.13
2023-03-27T03:58:49.585Z,95184.38
2023-03-27T04:01:20.891Z,95197.56
2023-03-27T04:03:48.510Z,95204.47
2023-03-27T04:06:21.249Z,95211.47
2023-03-27T04:08:48.674Z,95209.03
2023-03-27T04:11:15.596Z,95216.25
2023-03-27T04:13:42.632Z,95219.19
2023-03-27T04:16:09.757Z,95218.59
2023-03-27T04:18:39.669Z,95230.16
2023-03-27T04:21:15.027Z,95234.72
2023-03-27T04:23:43.122Z,95228.53
2023-03-27T04:26:12.459Z,95237.19
2023-03-27T04:28:39.668Z,95242.09
2023-03-27T04:31:07.404Z,95251.44
2023-03-27T04:33:35.114Z,95248.28
2023-03-27T04:36:06.350Z,95257.41
2023-03-27T04:38:37.082Z,95265.22
2023-03-27T04:41:06.255Z,95275.72
2023-03-27T04:43:37.069Z,95278.66
2023-03-27T04:46:06.910Z,95285.09
2023-03-27T04:48:34.841Z,95289.28
2023-03-27T04:51:01.636Z,95282.28
2023-03-27T04:53:30.636Z,95283.69
2023-03-27T04:55:57.423Z,95290.94
2023-03-27T04:58:26.009Z,95293.97
2023-03-27T05:00:56.707Z,95293.97
2023-03-27T05:03:28.180Z,95302.94
2023-03-27T05:05:55.093Z,95304.25
2023-03-27T05:08:22.829Z,95303.69
2023-03-27T05:10:49.806Z,95311.59
2023-03-27T05:13:16.719Z,95321.41
2023-03-27T05:15:43.820Z,95314.50
2023-03-27T05:18:10.684Z,95333.16
2023-03-27T05:20:37.571Z,95341.38
2023-03-27T05:23:04.702Z,95343.56
2023-03-27T05:25:32.683Z,95349.78
2023-03-27T05:28:00.768Z,95351.50
2023-03-27T05:30:28.142Z,95357.84
2023-03-27T05:32:58.539Z,95361.13
2023-03-27T05:35:25.908Z,95360.44
2023-03-27T05:37:53.431Z,95352.38
2023-03-27T05:40:22.556Z,95367.94
2023-03-27T05:42:50.121Z,95362.47
2023-03-27T05:45:17.287Z,95362.34
2023-03-27T05:47:57.741Z,95372.19
2023-03-27T05:50:28.796Z,95384.34
2023-03-27T05:53:14.248Z,95391.22
2023-03-27T05:55:41.201Z,95397.69
2023-03-27T05:58:10.247Z,95395.81
2023-03-27T06:00:38.796Z,95405.69
2023-03-27T06:03:07.608Z,95412.94
2023-03-27T06:05:34.680Z,95422.91
2023-03-27T06:08:02.506Z,95423.13
2023-03-27T06:10:30.387Z,95424.41
2023-03-27T06:13:01.619Z,95427.84
2023-03-27T06:15:29.035Z,95435.09
2023-03-27T06:17:56.541Z,95439.97
2023-03-27T06:20:25.178Z,95447.69
2023-03-27T06:22:53.211Z,95451.22
2023-03-27T06:25:20.553Z,95455.66
2023-03-27T06:27:47.972Z,95464.47
2023-03-27T06:30:16.286Z,95465.63
2023-03-27T06:32:47.868Z,95473.47
2023-03-27T06:35:15.311Z,95480.63
2023-03-27T06:37:42.967Z,95481.91
2023-03-27T06:40:10.686Z,95494.91
2023-03-27T06:42:38.659Z,95495.13
2023-03-27T06:45:06.530Z,95502.44
2023-03-27T06:47:44.791Z,95503.91
2023-03-27T06:50:15.306Z,95512.03
2023-03-27T06:52:42.287Z,95524.75
2023-03-27T06:55:15.028Z,95518.81
2023-03-27T06:57:44.374Z,95524.63
2023-03-27T07:00:23.020Z,95521.69
2023-03-27T07:02:54.535Z,95544.19
2023-03-27T07:05:21.534Z,95547.13
2023-03-27T07:07:49.431Z,95547.78
2023-03-27T07:10:16.595Z,95573.44
2023-03-27T07:12:50.977Z,95582.16
2023-03-27T07:15:18.420Z,95585.78
2023-03-27T07:17:52.258Z,95590.97
2023-03-27T07:20:20.192Z,95591.69
2023-03-27T07:22:47.222Z,95600.72
2023-03-27T07:25:14.036Z,95599.25
2023-03-27T07:27:40.973Z,95605.44
2023-03-27T07:30:08.648Z,95601.50
2023-03-27T07:32:37.882Z,95617.03
2023-03-27T07:35:05.786Z,95613.69
2023-03-27T07:37:32.928Z,95612.81
2023-03-27T07:39:59.777Z,95620.72
2023-03-27T07:42:26.701Z,95617.94
2023-03-27T07:44:53.538Z,95631.78
2023-03-27T07:47:21.302Z,95632.25
2023-03-27T07:49:48.246Z,95635.25
2023-03-27T07:52:16.564Z,95633.59
2023-03-27T07:54:43.689Z,95640.97
2023-03-27T07:57:11.566Z,95646.97
2023-03-27T07:59:38.671Z,95652.31
2023-03-27T08:02:05.992Z,95652.78
2023-03-27T08:04:33.079Z,95653.72
2023-03-27T08:07:00.730Z,95661.91
2023-03-27T08:09:27.659Z,95660.97
2023-03-27T08:11:54.487Z,95660.25
2023-03-27T08:14:21.541Z,95669.91
2023-03-27T08:16:48.549Z,95675.19
2023-03-27T08:19:16.380Z,95675.28
2023-03-27T08:21:43.266Z,95676.19
2023-03-27T08:24:10.320Z,95692.81
2023-03-27T08:26:37.277Z,95690.72
2023-03-27T08:29:04.610Z,95695.59
2023-03-27T08:31:31.782Z,95696.31
2023-03-27T08:33:58.829Z,95706.34
2023-03-27T08:36:25.759Z,95717.72
2023-03-27T08:38:55.625Z,95706.22
2023-03-27T08:41:28.905Z,95723.06
2023-03-27T08:44:06.575Z,95734.59
2023-03-27T08:46:49.357Z,95738.69
2023-03-27T08:49:20.668Z,95749.56
2023-03-27T08:51:59.336Z,95753.72
2023-03-27T08:54:31.256Z,95763.75
2023-03-27T08:56:58.225Z,95767.53
2023-03-27T08:59:27.967Z,95771.00
2023-03-27T09:02:06.859Z,95771.19
2023-03-27T09:05:09.958Z,95779.91
2023-03-27T09:07:37.437Z,95781.56
2023-03-27T09:10:17.598Z,95782.13
2023-03-27T09:12:55.359Z,95786.75
2023-03-27T09:15:27.216Z,95770.75
2023-03-27T09:18:06.470Z,95785.31
2023-03-27T09:20:35.239Z,95789.75
2023-03-27T09:23:34.297Z,95787.81
2023-03-27T09:26:07.122Z,95791.97
2023-03-27T09:28:42.817Z,95792.91
2023-03-27T09:31:29.444Z,95785.00
2023-03-27T09:33:57.384Z,95788.94
2023-03-27T09:36:27.637Z,95796.84
2023-03-27T09:38:58.926Z,95803.56
2023-03-27T09:41:29.166Z,95801.69
2023-03-27T09:44:26.450Z,95819.28
2023-03-27T09:47:04.686Z,95814.91
2023-03-27T09:49:31.547Z,95818.47
2023-03-27T09:52:00.260Z,95817.41
2023-03-27T09:54:31.968Z,95826.66
2023-03-27T09:57:01.990Z,95831.84
2023-03-27T09:59:29.723Z,95830.13
2023-03-27T10:01:58.403Z,95847.41
2023-03-27T10:04:26.148Z,95848.22
2023-03-27T10:07:05.569Z,95856.38
2023-03-27T10:09:34.699Z,95863.25
2023-03-27T10:12:05.659Z,95867.22
2023-03-27T10:14:46.339Z,95863.00
2023-03-27T10:17:29.269Z,95872.59
2023-03-27T10:20:18.006Z,95876.09
2023-03-27T10:22:56.575Z,95882.53
2023-03-27T10:25:32.736Z,95880.81
2023-03-27T10:28:22.983Z,95891.13
2023-03-27T10:31:24.650Z,95892.56
2023-03-27T10:33:51.892Z,95899.34
2023-03-27T10:36:18.976Z,95910.63
2023-03-27T10:38:49.308Z,95908.25
2023-03-27T10:41:27.914Z,95916.47
2023-03-27T10:43:57.195Z,95913.41
2023-03-27T10:46:26.897Z,95919.47
2023-03-27T10:49:30.962Z,95918.63
2023-03-27T10:52:23.912Z,95926.53
2023-03-27T10:54:54.935Z,95920.13
2023-03-27T10:57:24.877Z,95924.16
2023-03-27T11:00:13.924Z,95931.75
2023-03-27T11:02:48.610Z,95939.03
2023-03-27T11:05:26.556Z,95936.81
2023-03-27T11:08:06.240Z,95939.56
2023-03-27T11:10:46.438Z,95943.34
2023-03-27T11:13:33.747Z,95954.53
2023-03-27T11:16:10.357Z,95963.69
2023-03-27T11:18:39.760Z,95958.72
2023-03-27T11:21:14.175Z,95966.16
2023-03-27T11:24:01.773Z,95962.06
2023-03-27T11:27:00.656Z,95978.59
2023-03-27T11:29:30.764Z,95979.88
2023-03-27T11:32:03.604Z,95978.41
2023-03-27T11:34:43.339Z,95986.44
2023-03-27T11:37:30.860Z,95993.25
2023-03-27T11:40:18.185Z,96009.13
2023-03-27T11:42:45.134Z,96000.56
2023-03-27T11:45:13.952Z,95993.44
2023-03-27T11:47:44.078Z,96005.66
2023-03-27T11:50:22.483Z,96008.75
2023-03-27T11:53:07.506Z,96017.59
2023-03-27T11:55:58.043Z,96024.94
2023-03-27T11:58:32.370Z,96024.47
2023-03-27T12:00:59.333Z,96026.47
2023-03-27T12:03:36.917Z,96025.75
2023-03-27T12:06:14.303Z,96032.56
2023-03-27T12:08:51.962Z,96034.16
2023-03-27T12:11:18.954Z,96035.78
2023-03-27T12:13:58.178Z,96041.75
2023-03-27T12:16:52.343Z,96044.69
2023-03-27T12:19:38.999Z,96050.72
2023-03-27T12:22:24.813Z,96046.41
2023-03-27T12:25:35.989Z,96054.47
2023-03-27T12:28:22.941Z,96054.78
2023-03-27T12:31:31.751Z,96060.19
2023-03-27T12:34:06.661Z,96064.88
2023-03-27T12:36:38.117Z,96065.31
2023-03-27T12:39:22.835Z,96068.81
2023-03-27T12:41:49.984Z,96073.28
2023-03-27T12:44:29.875Z,96084.22
2023-03-27T12:47:24.355Z,96082.94
2023-03-27T12:49:59.106Z,96089.88
2023-03-27T12:52:26.989Z,96083.25
2023-03-27T12:55:19.475Z,96097.97
2023-03-27T12:57:47.078Z,96087.63
2023-03-27T13:00:25.923Z,96099.00
2023-03-27T13:02:56.563Z,96113.28
2023-03-27T13:05:54.505Z,96108.53
2023-03-27T13:08:40.448Z,96108.53
2023-03-27T13:11:38.405Z,96111.03
2023-03-27T13:14:42.394Z,96116.56
2023-03-27T13:17:21.525Z,96119.25
2023-03-27T13:20:10.864Z,96114.31
2023-03-27T13:22:40.725Z,96123.19
2023-03-27T13:25:51.912Z,96115.34
2023-03-27T13:28:19.111Z,96121.31
2023-03-27T13:30:51.916Z,96117.38
2023-03-27T13:33:31.223Z,96123.56
2023-03-27T13:35:58.203Z,96121.06
2023-03-27T13:38:49.083Z,96122.50
2023-03-27T13:41:44.025Z,96126.38
2023-03-27T13:44:33.299Z,96129.59
2023-03-27T13:47:22.085Z,96134.97
2023-03-27T13:50:17.719Z,96125.47
2023-03-27T13:52:57.387Z,96138.75
2023-03-27T13:55:28.594Z,96136.06
2023-03-27T13:58:23.449Z,96143.50
2023-03-27T14:01:08.118Z,96144.69
2023-03-27T14:03:53.747Z,96152.13
2023-03-27T14:06:48.557Z,96150.22
2023-03-27T14:09:30.211Z,96151.03
2023-03-27T14:12:06.247Z,96148.94
2023-03-27T14:14:37.480Z,96157.22
2023-03-27T14:17:31.971Z,96158.84
2023-03-27T14:20:11.336Z,96152.84
2023-03-27T14:23:19.254Z,96153.88
2023-03-27T14:26:02.357Z,96156.63
2023-03-27T14:28:35.118Z,96163.78
2023-03-27T14:31:06.544Z,96164.16
2023-03-27T14:33:34.871Z,96168.63
2023-03-27T14:36:05.784Z,96163.50
2023-03-27T14:38:34.697Z,96170.19
2023-03-27T14:41:06.062Z,96168.78
2023-03-27T14:43:33.253Z,96175.22
2023-03-27T14:46:03.544Z,96175.22
2023-03-27T14:48:39.021Z,96169.22
2023-03-27T14:51:16.132Z,96183.13
2023-03-27T14:53:44.747Z,96180.44
2023-03-27T14:56:42.784Z,96176.47
2023-03-27T14:59:14.624Z,96179.38
2023-03-27T15:01:42.337Z,96176.44
2023-03-27T15:04:11.509Z,96180.38
2023-03-27T15:06:38.710Z,96179.34
2023-03-27T15:09:05.907Z,96176.03
2023-03-27T15:11:38.767Z,96183.69
2023-03-27T15:14:06.695Z,96184.09
2023-03-27T15:16:36.148Z,96181.44
2023-03-27T15:19:10.032Z,96184.75
2023-03-27T15:21:46.819Z,96183.53
2023-03-27T15:24:52.374Z,96185.16
2023-03-27T15:27:27.275Z,96186.81
2023-03-27T15:30:01.495Z,96188.88
2023-03-27T15:32:42.622Z,96186.38
2023-03-27T15:35:13.977Z,96185.97
2023-03-27T15:37:40.902Z,96193.84
2023-03-27T15:40:36.999Z,96192.00
2023-03-27T15:43:14.243Z,96189.50
2023-03-27T15:45:43.125Z,96189.50
2023-03-27T15:48:16.004Z,96190.44
2023-03-27T15:51:00.150Z,96186.38
2023-03-27T15:53:56.044Z,96189.00
2023-03-27T15:56:41.523Z,96193.03
2023-03-27T15:59:10.021Z,96187.78
2023-03-27T16:01:53.571Z,96194.34
2023-03-27T16:04:26.766Z,96191.34
2023-03-27T16:06:54.922Z,96191.59
2023-03-27T16:09:34.665Z,96194.00
2023-03-27T16:12:01.620Z,96201.13
2023-03-27T16:14:57.384Z,96196.22
2023-03-27T16:17:39.706Z,96200.13
2023-03-27T16:20:13.098Z,96209.69
2023-03-27T16:22:40.615Z,96198.34
2023-03-27T16:25:10.229Z,96212.84
2023-03-27T16:27:37.846Z,96210.56
2023-03-27T16:30:09.375Z,96202.09
2023-03-27T16:32:37.205Z,96208.31
2023-03-27T16:35:04.309Z,96215.13
2023-03-27T16:37:31.272Z,96213.66
2023-03-27T16:39:58.208Z,96215.75
2023-03-27T16:42:26.359Z,96221.69
2023-03-27T16:44:53.768Z,96223.16
2023-03-27T16:47:23.220Z,96227.06
2023-03-27T16:50:03.576Z,96230.13
2023-03-27T16:52:37.732Z,96241.91
2023-03-27T16:55:07.277Z,96246.84
2023-03-27T16:57:36.519Z,96255.72
2023-03-27T17:00:05.589Z,96252.78
2023-03-27T17:02:34.674Z,96264.56
2023-03-27T17:05:07.141Z,96265.94
2023-03-27T17:07:34.353Z,96268.78
2023-03-27T17:10:01.251Z,96273.28
2023-03-27T17:12:29.500Z,96273.88
2023-03-27T17:14:56.790Z,96284.31
2023-03-27T17:17:23.914Z,96286.31
2023-03-27T17:19:50.896Z,96288.75
2023-03-27T17:22:17.905Z,96285.81
2023-03-27T17:24:56.204Z,96280.59
2023-03-27T17:27:26.960Z,96296.31
2023-03-27T17:29:56.515Z,96288.19
2023-03-27T17:32:27.195Z,96287.13
2023-03-27T17:34:54.557Z,96288.88
2023-03-27T17:37:21.706Z,96291.88
2023-03-27T17:39:48.918Z,96306.38
2023-03-27T17:42:15.870Z,96309.53
2023-03-27T17:44:44.948Z,96315.47
2023-03-27T17:47:12.331Z,96314.56
2023-03-27T17:49:39.867Z,96319.47
2023-03-27T17:52:11.499Z,96319.56
2023-03-27T17:54:38.476Z,96331.31
2023-03-27T17:57:05.946Z,96334.81
2023-03-27T17:59:32.870Z,96338.13
2023-03-27T18:01:59.877Z,96338.75
2023-03-27T18:04:26.870Z,96335.44
2023-03-27T18:06:53.758Z,96340.81
2023-03-27T18:09:20.719Z,96335.06
2023-03-27T18:11:47.625Z,96333.41
2023-03-27T18:14:14.532Z,96339.84
2023-03-27T18:16:41.961Z,96342.59
2023-03-27T18:19:09.425Z,96350.88
2023-03-27T18:21:36.340Z,96350.97
2023-03-27T18:24:03.809Z,96363.28
2023-03-27T18:26:30.749Z,96363.66
2023-03-27T18:28:58.156Z,96371.66
2023-03-27T18:31:25.585Z,96363.81
2023-03-27T18:33:52.632Z,96372.41
2023-03-27T18:36:19.579Z,96380.44
2023-03-27T18:38:49.671Z,96375.91
2023-03-27T18:41:17.107Z,96374.63
2023-03-27T18:43:44.103Z,96378.34
2023-03-27T18:46:17.146Z,96388.19
2023-03-27T18:48:45.737Z,96388.75
2023-03-27T18:51:12.784Z,96387.22
2023-03-27T18:53:39.764Z,96391.38
2023-03-27T18:56:07.695Z,96394.34
2023-03-27T18:58:35.576Z,96391.47
2023-03-27T19:01:02.755Z,96396.44
2023-03-27T19:03:35.440Z,96412.56
2023-03-27T19:06:03.976Z,96420.41
2023-03-27T19:08:30.835Z,96424.50
2023-03-27T19:10:58.082Z,96426.63
2023-03-27T19:13:25.524Z,96428.13
2023-03-27T19:15:52.609Z,96418.16
2023-03-27T19:18:19.608Z,96423.00
2023-03-27T19:20:46.904Z,96431.78
2023-03-27T19:23:14.396Z,96429.81
2023-03-27T19:25:41.380Z,96431.34
2023-03-27T19:28:08.332Z,96436.56
2023-03-27T19:30:35.581Z,96429.28
2023-03-27T19:33:02.599Z,96430.72
2023-03-27T19:35:29.625Z,96444.28
2023-03-27T19:37:56.533Z,96439.50
2023-03-27T19:40:23.547Z,96446.28
2023-03-27T19:42:50.700Z,96441.69
2023-03-27T19:45:17.805Z,96451.66
2023-03-27T19:47:44.721Z,96453.13
2023-03-27T19:50:11.650Z,96457.66
2023-03-27T19:52:39.117Z,96464.41
2023-03-27T19:55:07.234Z,96469.69
2023-03-27T19:57:34.135Z,96465.16
2023-03-27T20:00:01.768Z,96472.09
2023-03-27T20:02:28.977Z,96465.47
2023-03-27T20:04:55.897Z,96469.16
2023-03-27T20:07:22.819Z,96473.66
2023-03-27T20:09:52.366Z,96466.13
2023-03-27T20:12:20.133Z,96463.28
2023-03-27T20:15:02.017Z,96472.44
2023-03-27T20:17:33.975Z,96486.63
2023-03-27T20:20:00.994Z,96485.06
2023-03-27T20:22:29.886Z,96474.81
2023-03-27T20:24:56.824Z,96475.22
2023-03-27T20:27:23.784Z,96476.66
2023-03-27T20:29:50.875Z,96481.75
2023-03-27T20:32:17.839Z,96484.81
2023-03-27T20:34:46.703Z,96485.22
2023-03-27T20:37:13.706Z,96494.78
2023-03-27T20:39:47.346Z,96491.97
2023-03-27T20:42:15.778Z,96492.19
2023-03-27T20:44:44.608Z,96484.19
2023-03-27T20:47:12.639Z,96487.94
2023-03-27T20:49:41.708Z,96491.94
2023-03-27T20:52:10.527Z,96494.13
2023-03-27T20:54:37.604Z,96493.16
2023-03-27T20:57:04.675Z,96492.81
2023-03-27T20:59:31.660Z,96495.31
2023-03-27T21:01:59.578Z,96492.81
2023-03-27T21:04:26.914Z,96493.50
2023-03-27T21:06:55.032Z,96495.81
2023-03-27T21:09:22.959Z,96496.66
2023-03-27T21:11:49.949Z,96498.50
2023-03-27T21:14:17.077Z,96508.16
2023-03-27T21:16:44.075Z,96502.84
2023-03-27T21:19:12.221Z,96503.72
2023-03-27T21:21:39.278Z,96508.56
2023-03-27T21:24:06.609Z,96512.25
2023-03-27T21:26:34.122Z,96512.25
2023-03-27T21:29:01.458Z,96520.88
2023-03-27T21:31:28.288Z,96524.38
2023-03-27T21:33:55.452Z,96526.16
2023-03-27T21:36:22.440Z,96525.09
2023-03-27T21:38:49.441Z,96525.41
2023-03-27T21:41:16.740Z,96513.66
2023-03-27T21:43:43.646Z,96519.13
2023-03-27T21:46:10.951Z,96522.16
2023-03-27T21:48:40.820Z,96524.56
2023-03-27T21:51:08.734Z,96528.47
2023-03-27T21:53:35.944Z,96528.00
2023-03-27T21:56:03.136Z,96530.84
2023-03-27T21:58:30.109Z,96525.88
2023-03-27T22:00:57.661Z,96530.25
2023-03-27T22:03:25.945Z,96537.44
2023-03-27T22:06:01.473Z,96532.28
2023-03-27T22:08:39.017Z,96531.31
2023-03-27T22:11:06.081Z,96533.50
2023-03-27T22:13:37.800Z,96538.34
2023-03-27T22:16:12.818Z,96539.66
2023-03-27T22:18:40.365Z,96539.34
2023-03-27T22:21:24.610Z,96536.34
2023-03-27T22:23:52.272Z,96544.03
2023-03-27T22:26:20.749Z,96550.34
2023-03-27T22:28:47.888Z,96554.53
2023-03-27T22:31:15.279Z,96559.19
2023-03-27T22:33:42.449Z,96559.88
2023-03-27T22:36:09.894Z,96557.72
2023-03-27T22:38:36.909Z,96558.69
2023-03-27T22:41:04.925Z,96564.53
2023-03-27T22:43:31.947Z,96558.34
2023-03-27T22:46:08.472Z,96564.19
2023-03-27T22:48:35.583Z,96564.50
2023-03-27T22:51:03.428Z,96557.69
2023-03-27T22:53:32.130Z,96561.88
2023-03-27T22:55:59.817Z,96571.53
2023-03-27T22:58:27.420Z,96573.34
2023-03-27T23:00:54.882Z,96573.84
2023-03-27T23:03:22.081Z,96574.34
2023-03-27T23:05:49.834Z,96580.03
2023-03-27T23:08:18.211Z,96579.84
2023-03-27T23:10:45.473Z,96578.34
2023-03-27T23:13:12.756Z,96576.31
2023-03-27T23:15:39.735Z,96582.31
2023-03-27T23:18:06.990Z,96582.47
2023-03-27T23:20:33.964Z,96584.16
2023-03-27T23:23:01.074Z,96588.00
2023-03-27T23:25:28.064Z,96589.66
2023-03-27T23:27:55.277Z,96587.50
2023-03-27T23:30:22.327Z,96588.00
2023-03-27T23:32:49.535Z,96590.84
2023-03-27T23:35:17.274Z,96589.69
2023-03-27T23:37:44.168Z,96588.00
2023-03-27T23:40:13.568Z,96590.03
2023-03-27T23:42:40.840Z,96598.03
2023-03-27T23:45:08.477Z,96594.84
2023-03-27T23:47:36.077Z,96594.34
2023-03-27T23:50:03.459Z,96598.31
2023-03-27T23:52:30.459Z,96604.00
2023-03-27T23:54:57.631Z,96606.00
2023-03-27T23:57:25.741Z,96602.00
2023-03-27T23:59:52.888Z,96609.31
